sensor_id;sensor_type;location;lat;lon;timestamp;P1;durP1;ratioP1;P2;durP2;ratioP2
15358;SDS011;7779;49.596;11.070;2022-10-26T00:00:38;6.47;;;1.50;;
15358;SDS011;7779;49.596;11.070;2022-10-26T00:03:04;2.23;;;1.37;;
15358;SDS011;7779;49.596;11.070;2022-10-26T00:05:31;1.70;;;1.37;;
15358;SDS011;7779;49.596;11.070;2022-10-26T00:07:59;2.23;;;1.40;;
15358;SDS011;7779;49.596;11.070;2022-10-26T00:10:25;3.37;;;1.63;;
15358;SDS011;7779;49.596;11.070;2022-10-26T00:12:51;2.83;;;1.20;;
15358;SDS011;7779;49.596;11.070;2022-10-26T00:15:18;2.17;;;1.20;;
15358;SDS011;7779;49.596;11.070;2022-10-26T00:17:45;2.43;;;1.10;;
15358;SDS011;7779;49.596;11.070;2022-10-26T00:20:11;2.80;;;1.20;;
15358;SDS011;7779;49.596;11.070;2022-10-26T00:22:38;1.63;;;1.20;;
15358;SDS011;7779;49.596;11.070;2022-10-26T00:25:04;2.17;;;1.20;;
15358;SDS011;7779;49.596;11.070;2022-10-26T00:27:31;3.53;;;1.37;;
15358;SDS011;7779;49.596;11.070;2022-10-26T00:29:59;1.30;;;1.10;;
15358;SDS011;7779;49.596;11.070;2022-10-26T00:32:26;2.87;;;0.97;;
15358;SDS011;7779;49.596;11.070;2022-10-26T00:34:52;2.30;;;1.03;;
15358;SDS011;7779;49.596;11.070;2022-10-26T00:37:18;4.33;;;1.03;;
15358;SDS011;7779;49.596;11.070;2022-10-26T00:39:43;5.47;;;1.37;;
15358;SDS011;7779;49.596;11.070;2022-10-26T00:42:17;2.67;;;1.37;;
15358;SDS011;7779;49.596;11.070;2022-10-26T00:49:47;3.70;;;1.27;;
15358;SDS011;7779;49.596;11.070;2022-10-26T00:52:16;2.23;;;1.10;;
15358;SDS011;7779;49.596;11.070;2022-10-26T00:54:44;3.17;;;1.13;;
15358;SDS011;7779;49.596;11.070;2022-10-26T00:57:13;1.23;;;0.97;;
15358;SDS011;7779;49.596;11.070;2022-10-26T00:59:41;2.30;;;1.07;;
15358;SDS011;7779;49.596;11.070;2022-10-26T01:02:09;3.83;;;1.30;;
15358;SDS011;7779;49.596;11.070;2022-10-26T01:04:36;1.70;;;1.23;;
15358;SDS011;7779;49.596;11.070;2022-10-26T01:07:02;3.23;;;1.10;;
15358;SDS011;7779;49.596;11.070;2022-10-26T01:09:30;3.43;;;1.13;;
15358;SDS011;7779;49.596;11.070;2022-10-26T01:11:57;2.00;;;1.30;;
15358;SDS011;7779;49.596;11.070;2022-10-26T01:14:24;1.60;;;1.20;;
15358;SDS011;7779;49.596;11.070;2022-10-26T01:19:37;2.20;;;1.40;;
15358;SDS011;7779;49.596;11.070;2022-10-26T01:22:24;2.13;;;1.27;;
15358;SDS011;7779;49.596;11.070;2022-10-26T01:28:05;2.73;;;1.23;;
15358;SDS011;7779;49.596;11.070;2022-10-26T01:30:59;1.70;;;1.13;;
15358;SDS011;7779;49.596;11.070;2022-10-26T01:33:41;2.20;;;1.30;;
15358;SDS011;7779;49.596;11.070;2022-10-26T01:36:26;2.33;;;1.20;;
15358;SDS011;7779;49.596;11.070;2022-10-26T01:41:49;2.00;;;1.27;;
15358;SDS011;7779;49.596;11.070;2022-10-26T01:44:33;1.60;;;1.40;;
15358;SDS011;7779;49.596;11.070;2022-10-26T01:47:06;3.47;;;1.23;;
15358;SDS011;7779;49.596;11.070;2022-10-26T01:49:38;1.67;;;1.40;;
15358;SDS011;7779;49.596;11.070;2022-10-26T01:52:10;2.73;;;1.30;;
15358;SDS011;7779;49.596;11.070;2022-10-26T01:54:36;1.83;;;1.10;;
15358;SDS011;7779;49.596;11.070;2022-10-26T01:57:06;1.83;;;1.10;;
15358;SDS011;7779;49.596;11.070;2022-10-26T01:59:41;1.20;;;1.10;;
15358;SDS011;7779;49.596;11.070;2022-10-26T02:02:29;1.67;;;1.37;;
15358;SDS011;7779;49.596;11.070;2022-10-26T02:11:44;2.57;;;1.10;;
15358;SDS011;7779;49.596;11.070;2022-10-26T02:14:30;1.20;;;1.10;;
15358;SDS011;7779;49.596;11.070;2022-10-26T02:17:16;2.10;;;1.10;;
15358;SDS011;7779;49.596;11.070;2022-10-26T02:20:05;2.30;;;1.30;;
15358;SDS011;7779;49.596;11.070;2022-10-26T02:22:42;3.43;;;1.13;;
15358;SDS011;7779;49.596;11.070;2022-10-26T02:25:15;3.07;;;1.40;;
15358;SDS011;7779;49.596;11.070;2022-10-26T02:27:48;2.23;;;1.33;;
15358;SDS011;7779;49.596;11.070;2022-10-26T02:30:19;3.83;;;1.40;;
15358;SDS011;7779;49.596;11.070;2022-10-26T02:32:47;2.17;;;1.30;;
15358;SDS011;7779;49.596;11.070;2022-10-26T02:35:19;1.90;;;1.20;;
15358;SDS011;7779;49.596;11.070;2022-10-26T02:37:53;2.50;;;1.40;;
15358;SDS011;7779;49.596;11.070;2022-10-26T02:40:24;1.67;;;1.30;;
15358;SDS011;7779;49.596;11.070;2022-10-26T02:42:53;3.60;;;1.20;;
15358;SDS011;7779;49.596;11.070;2022-10-26T02:45:26;2.63;;;1.40;;
15358;SDS011;7779;49.596;11.070;2022-10-26T02:47:58;3.17;;;1.20;;
15358;SDS011;7779;49.596;11.070;2022-10-26T02:50:42;3.83;;;1.30;;
15358;SDS011;7779;49.596;11.070;2022-10-26T02:53:29;3.47;;;1.20;;
15358;SDS011;7779;49.596;11.070;2022-10-26T02:56:05;2.00;;;1.37;;
15358;SDS011;7779;49.596;11.070;2022-10-26T02:58:42;1.10;;;1.00;;
15358;SDS011;7779;49.596;11.070;2022-10-26T03:01:15;1.70;;;1.30;;
15358;SDS011;7779;49.596;11.070;2022-10-26T03:03:41;2.40;;;1.33;;
15358;SDS011;7779;49.596;11.070;2022-10-26T03:06:07;2.33;;;1.37;;
15358;SDS011;7779;49.596;11.070;2022-10-26T03:08:33;2.03;;;1.40;;
15358;SDS011;7779;49.596;11.070;2022-10-26T03:10:58;3.00;;;1.10;;
15358;SDS011;7779;49.596;11.070;2022-10-26T03:13:24;2.13;;;1.37;;
15358;SDS011;7779;49.596;11.070;2022-10-26T03:15:50;3.30;;;1.20;;
15358;SDS011;7779;49.596;11.070;2022-10-26T03:18:21;2.10;;;1.20;;
15358;SDS011;7779;49.596;11.070;2022-10-26T03:20:47;3.47;;;1.40;;
15358;SDS011;7779;49.596;11.070;2022-10-26T03:23:13;3.03;;;1.40;;
15358;SDS011;7779;49.596;11.070;2022-10-26T03:25:39;1.83;;;1.40;;
15358;SDS011;7779;49.596;11.070;2022-10-26T03:28:04;3.30;;;1.20;;
15358;SDS011;7779;49.596;11.070;2022-10-26T03:30:31;3.07;;;1.40;;
15358;SDS011;7779;49.596;11.070;2022-10-26T03:32:57;3.63;;;1.40;;
15358;SDS011;7779;49.596;11.070;2022-10-26T03:35:23;5.10;;;1.47;;
15358;SDS011;7779;49.596;11.070;2022-10-26T03:37:49;1.50;;;1.40;;
15358;SDS011;7779;49.596;11.070;2022-10-26T03:40:14;2.53;;;1.27;;
15358;SDS011;7779;49.596;11.070;2022-10-26T03:42:40;2.23;;;1.30;;
15358;SDS011;7779;49.596;11.070;2022-10-26T03:45:06;4.13;;;1.50;;
15358;SDS011;7779;49.596;11.070;2022-10-26T03:47:33;3.47;;;1.30;;
15358;SDS011;7779;49.596;11.070;2022-10-26T03:50:06;4.03;;;1.30;;
15358;SDS011;7779;49.596;11.070;2022-10-26T03:52:33;2.33;;;1.30;;
15358;SDS011;7779;49.596;11.070;2022-10-26T03:54:58;1.93;;;1.17;;
15358;SDS011;7779;49.596;11.070;2022-10-26T03:57:24;1.67;;;1.20;;
15358;SDS011;7779;49.596;11.070;2022-10-26T03:59:50;1.87;;;1.00;;
15358;SDS011;7779;49.596;11.070;2022-10-26T04:02:16;1.63;;;1.10;;
15358;SDS011;7779;49.596;11.070;2022-10-26T04:04:41;4.40;;;1.43;;
15358;SDS011;7779;49.596;11.070;2022-10-26T04:07:07;1.90;;;1.03;;
15358;SDS011;7779;49.596;11.070;2022-10-26T04:09:33;4.00;;;1.13;;
15358;SDS011;7779;49.596;11.070;2022-10-26T04:11:59;0.90;;;0.87;;
15358;SDS011;7779;49.596;11.070;2022-10-26T04:14:24;2.00;;;1.00;;
15358;SDS011;7779;49.596;11.070;2022-10-26T04:16:50;1.90;;;1.10;;
15358;SDS011;7779;49.596;11.070;2022-10-26T04:19:16;2.80;;;1.27;;
15358;SDS011;7779;49.596;11.070;2022-10-26T04:21:41;1.93;;;1.17;;
15358;SDS011;7779;49.596;11.070;2022-10-26T04:24:08;4.27;;;1.23;;
15358;SDS011;7779;49.596;11.070;2022-10-26T04:26:35;2.53;;;1.30;;
15358;SDS011;7779;49.596;11.070;2022-10-26T04:29:01;1.93;;;1.20;;
15358;SDS011;7779;49.596;11.070;2022-10-26T04:31:31;4.60;;;1.30;;
15358;SDS011;7779;49.596;11.070;2022-10-26T04:33:57;2.60;;;1.40;;
15358;SDS011;7779;49.596;11.070;2022-10-26T04:36:23;2.27;;;1.40;;
15358;SDS011;7779;49.596;11.070;2022-10-26T04:38:48;1.73;;;1.13;;
15358;SDS011;7779;49.596;11.070;2022-10-26T04:41:14;1.57;;;1.40;;
15358;SDS011;7779;49.596;11.070;2022-10-26T04:43:40;3.53;;;1.20;;
15358;SDS011;7779;49.596;11.070;2022-10-26T04:46:05;2.30;;;1.20;;
15358;SDS011;7779;49.596;11.070;2022-10-26T04:48:31;2.03;;;1.40;;
15358;SDS011;7779;49.596;11.070;2022-10-26T04:50:57;4.40;;;1.27;;
15358;SDS011;7779;49.596;11.070;2022-10-26T04:53:24;2.33;;;1.30;;
15358;SDS011;7779;49.596;11.070;2022-10-26T04:55:58;1.20;;;1.10;;
15358;SDS011;7779;49.596;11.070;2022-10-26T04:58:25;2.20;;;1.33;;
15358;SDS011;7779;49.596;11.070;2022-10-26T05:00:53;2.17;;;1.50;;
15358;SDS011;7779;49.596;11.070;2022-10-26T05:03:19;3.57;;;1.17;;
15358;SDS011;7779;49.596;11.070;2022-10-26T05:05:45;4.73;;;1.30;;
15358;SDS011;7779;49.596;11.070;2022-10-26T05:08:14;1.80;;;1.33;;
15358;SDS011;7779;49.596;11.070;2022-10-26T05:10:40;2.00;;;1.30;;
15358;SDS011;7779;49.596;11.070;2022-10-26T05:13:07;3.63;;;1.40;;
15358;SDS011;7779;49.596;11.070;2022-10-26T05:15:34;2.03;;;1.20;;
15358;SDS011;7779;49.596;11.070;2022-10-26T05:18:01;1.60;;;1.03;;
15358;SDS011;7779;49.596;11.070;2022-10-26T05:20:30;2.17;;;1.27;;
15358;SDS011;7779;49.596;11.070;2022-10-26T05:22:59;1.90;;;1.27;;
15358;SDS011;7779;49.596;11.070;2022-10-26T05:25:35;2.47;;;1.30;;
15358;SDS011;7779;49.596;11.070;2022-10-26T05:28:03;1.83;;;1.40;;
15358;SDS011;7779;49.596;11.070;2022-10-26T05:30:33;1.27;;;1.07;;
15358;SDS011;7779;49.596;11.070;2022-10-26T05:33:00;2.07;;;1.27;;
15358;SDS011;7779;49.596;11.070;2022-10-26T05:35:27;1.17;;;1.07;;
15358;SDS011;7779;49.596;11.070;2022-10-26T05:37:53;1.77;;;1.23;;
15358;SDS011;7779;49.596;11.070;2022-10-26T05:40:19;2.90;;;1.40;;
15358;SDS011;7779;49.596;11.070;2022-10-26T05:42:45;1.40;;;1.10;;
15358;SDS011;7779;49.596;11.070;2022-10-26T05:45:11;2.03;;;1.50;;
15358;SDS011;7779;49.596;11.070;2022-10-26T05:47:38;3.43;;;1.40;;
15358;SDS011;7779;49.596;11.070;2022-10-26T05:50:05;1.40;;;1.03;;
15358;SDS011;7779;49.596;11.070;2022-10-26T05:52:43;2.00;;;1.20;;
15358;SDS011;7779;49.596;11.070;2022-10-26T05:55:14;1.73;;;1.20;;
15358;SDS011;7779;49.596;11.070;2022-10-26T05:57:41;2.57;;;1.50;;
15358;SDS011;7779;49.596;11.070;2022-10-26T06:00:09;2.27;;;1.30;;
15358;SDS011;7779;49.596;11.070;2022-10-26T06:06:15;3.87;;;1.50;;
15358;SDS011;7779;49.596;11.070;2022-10-26T06:08:24;2.10;;;1.20;;
15358;SDS011;7779;49.596;11.070;2022-10-26T06:10:53;2.50;;;1.27;;
15358;SDS011;7779;49.596;11.070;2022-10-26T06:13:26;2.40;;;1.50;;
15358;SDS011;7779;49.596;11.070;2022-10-26T06:18:43;3.07;;;1.70;;
15358;SDS011;7779;49.596;11.070;2022-10-26T06:21:54;3.77;;;1.73;;
15358;SDS011;7779;49.596;11.070;2022-10-26T06:25:05;3.23;;;1.60;;
15358;SDS011;7779;49.596;11.070;2022-10-26T06:30:30;3.40;;;1.50;;
15358;SDS011;7779;49.596;11.070;2022-10-26T06:32:55;2.63;;;1.50;;
15358;SDS011;7779;49.596;11.070;2022-10-26T06:38:06;1.97;;;1.50;;
15358;SDS011;7779;49.596;11.070;2022-10-26T06:40:39;2.50;;;1.50;;
15358;SDS011;7779;49.596;11.070;2022-10-26T06:43:15;3.13;;;1.70;;
15358;SDS011;7779;49.596;11.070;2022-10-26T06:46:15;2.73;;;1.70;;
15358;SDS011;7779;49.596;11.070;2022-10-26T06:49:01;2.33;;;1.63;;
15358;SDS011;7779;49.596;11.070;2022-10-26T06:57:19;1.93;;;1.50;;
15358;SDS011;7779;49.596;11.070;2022-10-26T06:59:53;1.97;;;1.50;;
15358;SDS011;7779;49.596;11.070;2022-10-26T07:02:24;3.93;;;1.63;;
15358;SDS011;7779;49.596;11.070;2022-10-26T07:04:50;3.47;;;1.40;;
15358;SDS011;7779;49.596;11.070;2022-10-26T07:07:22;2.60;;;1.77;;
15358;SDS011;7779;49.596;11.070;2022-10-26T07:09:51;2.87;;;1.60;;
15358;SDS011;7779;49.596;11.070;2022-10-26T07:12:17;2.17;;;1.40;;
15358;SDS011;7779;49.596;11.070;2022-10-26T07:14:43;1.53;;;1.33;;
15358;SDS011;7779;49.596;11.070;2022-10-26T07:17:09;2.77;;;1.63;;
15358;SDS011;7779;49.596;11.070;2022-10-26T07:19:35;3.50;;;1.33;;
15358;SDS011;7779;49.596;11.070;2022-10-26T07:22:01;1.87;;;1.53;;
15358;SDS011;7779;49.596;11.070;2022-10-26T07:24:28;2.07;;;1.20;;
15358;SDS011;7779;49.596;11.070;2022-10-26T07:26:55;2.20;;;1.20;;
15358;SDS011;7779;49.596;11.070;2022-10-26T07:29:22;4.00;;;1.23;;
15358;SDS011;7779;49.596;11.070;2022-10-26T07:31:50;1.50;;;1.40;;
15358;SDS011;7779;49.596;11.070;2022-10-26T07:34:17;2.47;;;1.67;;
15358;SDS011;7779;49.596;11.070;2022-10-26T07:36:43;2.47;;;1.53;;
15358;SDS011;7779;49.596;11.070;2022-10-26T07:39:09;1.90;;;1.30;;
15358;SDS011;7779;49.596;11.070;2022-10-26T07:41:35;1.67;;;1.33;;
15358;SDS011;7779;49.596;11.070;2022-10-26T07:44:01;1.40;;;1.30;;
15358;SDS011;7779;49.596;11.070;2022-10-26T07:46:27;1.87;;;1.30;;
15358;SDS011;7779;49.596;11.070;2022-10-26T07:48:53;1.30;;;1.10;;
15358;SDS011;7779;49.596;11.070;2022-10-26T07:51:18;1.53;;;1.20;;
15358;SDS011;7779;49.596;11.070;2022-10-26T07:53:44;3.03;;;1.33;;
15358;SDS011;7779;49.596;11.070;2022-10-26T07:56:10;1.30;;;1.20;;
15358;SDS011;7779;49.596;11.070;2022-10-26T07:58:37;1.20;;;1.10;;
15358;SDS011;7779;49.596;11.070;2022-10-26T08:01:04;1.37;;;0.90;;
15358;SDS011;7779;49.596;11.070;2022-10-26T08:03:35;1.40;;;1.20;;
15358;SDS011;7779;49.596;11.070;2022-10-26T08:06:01;1.83;;;1.27;;
15358;SDS011;7779;49.596;11.070;2022-10-26T08:08:29;5.13;;;1.10;;
15358;SDS011;7779;49.596;11.070;2022-10-26T08:10:56;1.50;;;1.20;;
15358;SDS011;7779;49.596;11.070;2022-10-26T08:13:23;1.30;;;1.20;;
15358;SDS011;7779;49.596;11.070;2022-10-26T08:15:49;0.97;;;0.87;;
15358;SDS011;7779;49.596;11.070;2022-10-26T08:18:14;1.50;;;1.10;;
15358;SDS011;7779;49.596;11.070;2022-10-26T08:20:40;1.17;;;1.00;;
15358;SDS011;7779;49.596;11.070;2022-10-26T08:23:06;2.10;;;0.97;;
15358;SDS011;7779;49.596;11.070;2022-10-26T08:25:32;2.30;;;1.00;;
15358;SDS011;7779;49.596;11.070;2022-10-26T08:28:02;1.10;;;0.90;;
15358;SDS011;7779;49.596;11.070;2022-10-26T08:30:29;1.40;;;1.10;;
15358;SDS011;7779;49.596;11.070;2022-10-26T08:32:59;2.77;;;1.10;;
15358;SDS011;7779;49.596;11.070;2022-10-26T08:35:27;1.40;;;1.30;;
15358;SDS011;7779;49.596;11.070;2022-10-26T08:37:54;1.77;;;1.00;;
15358;SDS011;7779;49.596;11.070;2022-10-26T08:40:23;1.20;;;1.10;;
15358;SDS011;7779;49.596;11.070;2022-10-26T08:45:54;2.97;;;1.07;;
15358;SDS011;7779;49.596;11.070;2022-10-26T08:48:46;1.70;;;1.17;;
15358;SDS011;7779;49.596;11.070;2022-10-26T08:51:29;1.50;;;1.20;;
15358;SDS011;7779;49.596;11.070;2022-10-26T08:54:13;1.37;;;1.00;;
15358;SDS011;7779;49.596;11.070;2022-10-26T08:56:56;2.27;;;1.40;;
15358;SDS011;7779;49.596;11.070;2022-10-26T09:02:17;2.30;;;1.20;;
15358;SDS011;7779;49.596;11.070;2022-10-26T09:04:45;3.57;;;1.43;;
15358;SDS011;7779;49.596;11.070;2022-10-26T09:13:03;4.10;;;1.40;;
15358;SDS011;7779;49.596;11.070;2022-10-26T09:18:30;1.40;;;1.23;;
15358;SDS011;7779;49.596;11.070;2022-10-26T09:27:10;2.37;;;1.67;;
15358;SDS011;7779;49.596;11.070;2022-10-26T09:30:15;3.90;;;1.77;;
15358;SDS011;7779;49.596;11.070;2022-10-26T09:32:45;2.00;;;1.40;;
15358;SDS011;7779;49.596;11.070;2022-10-26T09:35:34;3.30;;;1.20;;
15358;SDS011;7779;49.596;11.070;2022-10-26T09:38:28;2.03;;;1.37;;
15358;SDS011;7779;49.596;11.070;2022-10-26T09:41:05;1.77;;;1.10;;
15358;SDS011;7779;49.596;11.070;2022-10-26T09:49:23;1.40;;;1.13;;
15358;SDS011;7779;49.596;11.070;2022-10-26T09:52:00;3.77;;;1.43;;
15358;SDS011;7779;49.596;11.070;2022-10-26T09:54:25;2.20;;;1.00;;
15358;SDS011;7779;49.596;11.070;2022-10-26T09:56:53;2.43;;;1.20;;
15358;SDS011;7779;49.596;11.070;2022-10-26T09:59:24;1.87;;;1.13;;
15358;SDS011;7779;49.596;11.070;2022-10-26T10:01:50;1.63;;;1.13;;
15358;SDS011;7779;49.596;11.070;2022-10-26T10:04:20;1.80;;;1.30;;
15358;SDS011;7779;49.596;11.070;2022-10-26T10:06:50;1.77;;;1.20;;
15358;SDS011;7779;49.596;11.070;2022-10-26T10:09:37;2.77;;;1.03;;
15358;SDS011;7779;49.596;11.070;2022-10-26T10:12:02;2.20;;;1.20;;
15358;SDS011;7779;49.596;11.070;2022-10-26T10:14:39;2.23;;;1.13;;
15358;SDS011;7779;49.596;11.070;2022-10-26T10:17:23;3.93;;;1.30;;
15358;SDS011;7779;49.596;11.070;2022-10-26T10:19:50;1.90;;;1.00;;
15358;SDS011;7779;49.596;11.070;2022-10-26T10:22:18;4.17;;;1.30;;
15358;SDS011;7779;49.596;11.070;2022-10-26T10:27:28;3.10;;;1.47;;
15358;SDS011;7779;49.596;11.070;2022-10-26T10:30:03;3.10;;;1.30;;
15358;SDS011;7779;49.596;11.070;2022-10-26T10:33:03;2.93;;;1.07;;
15358;SDS011;7779;49.596;11.070;2022-10-26T10:35:35;3.47;;;1.17;;
15358;SDS011;7779;49.596;11.070;2022-10-26T10:38:20;1.23;;;1.10;;
15358;SDS011;7779;49.596;11.070;2022-10-26T10:40:50;2.23;;;1.10;;
15358;SDS011;7779;49.596;11.070;2022-10-26T10:43:23;2.73;;;1.60;;
15358;SDS011;7779;49.596;11.070;2022-10-26T10:45:50;1.77;;;1.10;;
15358;SDS011;7779;49.596;11.070;2022-10-26T10:50:55;2.70;;;1.17;;
15358;SDS011;7779;49.596;11.070;2022-10-26T10:53:44;1.87;;;1.30;;
15358;SDS011;7779;49.596;11.070;2022-10-26T10:56:32;2.90;;;1.20;;
15358;SDS011;7779;49.596;11.070;2022-10-26T11:07:29;2.03;;;1.40;;
15358;SDS011;7779;49.596;11.070;2022-10-26T11:10:05;1.67;;;1.30;;
15358;SDS011;7779;49.596;11.070;2022-10-26T11:12:42;1.73;;;1.30;;
15358;SDS011;7779;49.596;11.070;2022-10-26T11:15:19;1.90;;;1.27;;
15358;SDS011;7779;49.596;11.070;2022-10-26T11:20:32;1.83;;;1.30;;
15358;SDS011;7779;49.596;11.070;2022-10-26T11:26:08;2.97;;;1.50;;
15358;SDS011;7779;49.596;11.070;2022-10-26T11:28:54;3.03;;;1.37;;
15358;SDS011;7779;49.596;11.070;2022-10-26T11:31:38;1.53;;;1.20;;
15358;SDS011;7779;49.596;11.070;2022-10-26T11:36:55;3.23;;;1.03;;
15358;SDS011;7779;49.596;11.070;2022-10-26T11:39:37;2.20;;;1.30;;
15358;SDS011;7779;49.596;11.070;2022-10-26T11:42:17;2.60;;;1.17;;
15358;SDS011;7779;49.596;11.070;2022-10-26T11:44:48;2.30;;;1.20;;
15358;SDS011;7779;49.596;11.070;2022-10-26T11:47:24;2.57;;;1.20;;
15358;SDS011;7779;49.596;11.070;2022-10-26T11:52:51;2.77;;;1.30;;
15358;SDS011;7779;49.596;11.070;2022-10-26T11:55:29;3.23;;;1.17;;
15358;SDS011;7779;49.596;11.070;2022-10-26T11:57:56;1.77;;;1.33;;
15358;SDS011;7779;49.596;11.070;2022-10-26T12:00:23;2.03;;;1.30;;
15358;SDS011;7779;49.596;11.070;2022-10-26T12:03:00;2.60;;;1.43;;
15358;SDS011;7779;49.596;11.070;2022-10-26T12:05:35;2.93;;;1.40;;
15358;SDS011;7779;49.596;11.070;2022-10-26T12:08:23;1.67;;;1.40;;
15358;SDS011;7779;49.596;11.070;2022-10-26T12:14:00;2.87;;;1.20;;
15358;SDS011;7779;49.596;11.070;2022-10-26T12:19:48;2.20;;;1.07;;
15358;SDS011;7779;49.596;11.070;2022-10-26T12:22:57;3.00;;;1.33;;
15358;SDS011;7779;49.596;11.070;2022-10-26T12:25:23;3.00;;;1.20;;
15358;SDS011;7779;49.596;11.070;2022-10-26T12:27:53;4.20;;;1.63;;
15358;SDS011;7779;49.596;11.070;2022-10-26T12:33:02;2.87;;;1.50;;
15358;SDS011;7779;49.596;11.070;2022-10-26T12:35:54;1.77;;;1.20;;
15358;SDS011;7779;49.596;11.070;2022-10-26T12:48:40;3.20;;;1.60;;
15358;SDS011;7779;49.596;11.070;2022-10-26T12:57:07;2.70;;;1.60;;
15358;SDS011;7779;49.596;11.070;2022-10-26T12:59:59;3.37;;;1.73;;
15358;SDS011;7779;49.596;11.070;2022-10-26T13:08:55;1.70;;;1.40;;
15358;SDS011;7779;49.596;11.070;2022-10-26T13:11:25;4.20;;;1.30;;
15358;SDS011;7779;49.596;11.070;2022-10-26T13:13:57;3.40;;;1.53;;
15358;SDS011;7779;49.596;11.070;2022-10-26T13:16:28;2.87;;;1.30;;
15358;SDS011;7779;49.596;11.070;2022-10-26T13:18:55;3.10;;;1.30;;
15358;SDS011;7779;49.596;11.070;2022-10-26T13:21:22;4.53;;;1.50;;
15358;SDS011;7779;49.596;11.070;2022-10-26T13:26:22;2.00;;;1.40;;
15358;SDS011;7779;49.596;11.070;2022-10-26T13:28:58;4.83;;;1.20;;
15358;SDS011;7779;49.596;11.070;2022-10-26T13:34:05;2.30;;;1.27;;
15358;SDS011;7779;49.596;11.070;2022-10-26T13:36:41;3.60;;;1.20;;
15358;SDS011;7779;49.596;11.070;2022-10-26T13:39:23;2.13;;;1.47;;
15358;SDS011;7779;49.596;11.070;2022-10-26T13:41:55;2.53;;;1.13;;
15358;SDS011;7779;49.596;11.070;2022-10-26T13:44:28;3.07;;;1.27;;
15358;SDS011;7779;49.596;11.070;2022-10-26T13:47:44;3.17;;;1.40;;
15358;SDS011;7779;49.596;11.070;2022-10-26T13:53:21;3.73;;;1.50;;
15358;SDS011;7779;49.596;11.070;2022-10-26T13:59:09;3.00;;;1.47;;
15358;SDS011;7779;49.596;11.070;2022-10-26T14:01:37;6.07;;;1.67;;
15358;SDS011;7779;49.596;11.070;2022-10-26T14:04:16;2.83;;;1.40;;
15358;SDS011;7779;49.596;11.070;2022-10-26T14:06:51;4.97;;;1.50;;
15358;SDS011;7779;49.596;11.070;2022-10-26T14:09:19;1.97;;;1.20;;
15358;SDS011;7779;49.596;11.070;2022-10-26T14:14:29;2.70;;;1.50;;
15358;SDS011;7779;49.596;11.070;2022-10-26T14:16:59;2.70;;;1.57;;
15358;SDS011;7779;49.596;11.070;2022-10-26T14:19:30;4.80;;;1.70;;
15358;SDS011;7779;49.596;11.070;2022-10-26T14:22:00;2.77;;;1.53;;
15358;SDS011;7779;49.596;11.070;2022-10-26T14:24:28;1.67;;;1.30;;
15358;SDS011;7779;49.596;11.070;2022-10-26T14:26:56;3.40;;;1.23;;
15358;SDS011;7779;49.596;11.070;2022-10-26T14:29:23;2.13;;;1.37;;
15358;SDS011;7779;49.596;11.070;2022-10-26T14:31:52;3.57;;;1.40;;
15358;SDS011;7779;49.596;11.070;2022-10-26T14:34:21;3.50;;;1.40;;
15358;SDS011;7779;49.596;11.070;2022-10-26T14:36:49;2.97;;;1.20;;
15358;SDS011;7779;49.596;11.070;2022-10-26T14:39:41;1.67;;;1.20;;
15358;SDS011;7779;49.596;11.070;2022-10-26T14:44:45;2.77;;;1.60;;
15358;SDS011;7779;49.596;11.070;2022-10-26T14:47:27;3.17;;;1.30;;
15358;SDS011;7779;49.596;11.070;2022-10-26T14:49:57;3.27;;;1.23;;
15358;SDS011;7779;49.596;11.070;2022-10-26T14:52:28;4.07;;;1.87;;
15358;SDS011;7779;49.596;11.070;2022-10-26T14:54:59;2.33;;;1.50;;
15358;SDS011;7779;49.596;11.070;2022-10-26T14:57:33;2.93;;;1.20;;
15358;SDS011;7779;49.596;11.070;2022-10-26T15:00:03;2.07;;;1.13;;
15358;SDS011;7779;49.596;11.070;2022-10-26T15:02:46;5.00;;;1.37;;
15358;SDS011;7779;49.596;11.070;2022-10-26T15:07:51;2.17;;;1.10;;
15358;SDS011;7779;49.596;11.070;2022-10-26T15:13:08;3.70;;;1.77;;
15358;SDS011;7779;49.596;11.070;2022-10-26T15:16:18;1.90;;;1.37;;
15358;SDS011;7779;49.596;11.070;2022-10-26T15:18:44;1.90;;;1.30;;
15358;SDS011;7779;49.596;11.070;2022-10-26T15:21:20;3.83;;;1.53;;
15358;SDS011;7779;49.596;11.070;2022-10-26T15:23:59;2.53;;;1.70;;
15358;SDS011;7779;49.596;11.070;2022-10-26T15:26:26;2.67;;;1.80;;
15358;SDS011;7779;49.596;11.070;2022-10-26T15:28:53;2.17;;;1.97;;
15358;SDS011;7779;49.596;11.070;2022-10-26T15:36:18;4.63;;;1.90;;
15358;SDS011;7779;49.596;11.070;2022-10-26T15:38:47;2.73;;;2.00;;
15358;SDS011;7779;49.596;11.070;2022-10-26T15:43:52;3.70;;;2.10;;
15358;SDS011;7779;49.596;11.070;2022-10-26T15:46:23;5.63;;;2.93;;
15358;SDS011;7779;49.596;11.070;2022-10-26T15:48:54;5.17;;;3.60;;
15358;SDS011;7779;49.596;11.070;2022-10-26T15:51:23;5.03;;;3.37;;
15358;SDS011;7779;49.596;11.070;2022-10-26T15:53:49;4.90;;;3.60;;
15358;SDS011;7779;49.596;11.070;2022-10-26T15:56:16;4.67;;;3.40;;
15358;SDS011;7779;49.596;11.070;2022-10-26T15:58:45;4.60;;;2.93;;
15358;SDS011;7779;49.596;11.070;2022-10-26T16:01:18;6.07;;;2.80;;
15358;SDS011;7779;49.596;11.070;2022-10-26T16:03:47;4.60;;;2.60;;
15358;SDS011;7779;49.596;11.070;2022-10-26T16:08:57;3.37;;;2.37;;
15358;SDS011;7779;49.596;11.070;2022-10-26T16:11:26;2.90;;;2.17;;
15358;SDS011;7779;49.596;11.070;2022-10-26T16:13:52;4.30;;;2.20;;
15358;SDS011;7779;49.596;11.070;2022-10-26T16:16:19;5.20;;;2.47;;
15358;SDS011;7779;49.596;11.070;2022-10-26T16:18:46;4.43;;;2.20;;
15358;SDS011;7779;49.596;11.070;2022-10-26T16:21:17;3.03;;;2.63;;
15358;SDS011;7779;49.596;11.070;2022-10-26T16:23:46;3.67;;;2.83;;
15358;SDS011;7779;49.596;11.070;2022-10-26T16:26:14;5.27;;;3.40;;
15358;SDS011;7779;49.596;11.070;2022-10-26T16:28:40;4.70;;;3.00;;
15358;SDS011;7779;49.596;11.070;2022-10-26T16:31:07;6.83;;;3.50;;
15358;SDS011;7779;49.596;11.070;2022-10-26T16:33:37;7.13;;;3.10;;
15358;SDS011;7779;49.596;11.070;2022-10-26T16:36:03;6.07;;;3.77;;
15358;SDS011;7779;49.596;11.070;2022-10-26T16:38:30;15.83;;;7.20;;
15358;SDS011;7779;49.596;11.070;2022-10-26T16:43:33;6.53;;;4.37;;
15358;SDS011;7779;49.596;11.070;2022-10-26T16:46:11;8.53;;;4.37;;
15358;SDS011;7779;49.596;11.070;2022-10-26T16:48:41;8.93;;;3.80;;
15358;SDS011;7779;49.596;11.070;2022-10-26T16:51:10;5.53;;;3.40;;
15358;SDS011;7779;49.596;11.070;2022-10-26T16:53:42;6.03;;;3.47;;
15358;SDS011;7779;49.596;11.070;2022-10-26T16:56:11;4.50;;;3.17;;
15358;SDS011;7779;49.596;11.070;2022-10-26T16:58:40;4.23;;;3.20;;
15358;SDS011;7779;49.596;11.070;2022-10-26T17:01:06;5.17;;;3.50;;
15358;SDS011;7779;49.596;11.070;2022-10-26T17:03:33;4.00;;;3.33;;
15358;SDS011;7779;49.596;11.070;2022-10-26T17:06:01;3.97;;;3.17;;
15358;SDS011;7779;49.596;11.070;2022-10-26T17:08:30;5.13;;;3.33;;
15358;SDS011;7779;49.596;11.070;2022-10-26T17:11:03;4.83;;;3.30;;
15358;SDS011;7779;49.596;11.070;2022-10-26T17:13:35;4.60;;;3.47;;
15358;SDS011;7779;49.596;11.070;2022-10-26T17:16:02;5.10;;;3.47;;
15358;SDS011;7779;49.596;11.070;2022-10-26T17:18:34;4.90;;;3.67;;
15358;SDS011;7779;49.596;11.070;2022-10-26T17:21:00;6.67;;;3.20;;
15358;SDS011;7779;49.596;11.070;2022-10-26T17:23:26;7.20;;;4.80;;
15358;SDS011;7779;49.596;11.070;2022-10-26T17:25:52;8.20;;;4.73;;
15358;SDS011;7779;49.596;11.070;2022-10-26T17:28:18;6.87;;;5.17;;
15358;SDS011;7779;49.596;11.070;2022-10-26T17:30:44;7.83;;;5.20;;
15358;SDS011;7779;49.596;11.070;2022-10-26T17:33:10;6.97;;;5.33;;
15358;SDS011;7779;49.596;11.070;2022-10-26T17:35:36;7.27;;;5.40;;
15358;SDS011;7779;49.596;11.070;2022-10-26T17:38:02;9.43;;;5.43;;
15358;SDS011;7779;49.596;11.070;2022-10-26T17:40:29;6.17;;;5.00;;
15358;SDS011;7779;49.596;11.070;2022-10-26T17:42:57;8.90;;;5.73;;
15358;SDS011;7779;49.596;11.070;2022-10-26T17:45:24;8.90;;;5.73;;
15358;SDS011;7779;49.596;11.070;2022-10-26T17:47:50;7.83;;;5.77;;